Terminal Aerodrome Forecast
Issued by NWS

Home | Current Version | Previous Version | Text Only | Print | Product List | Glossary On
Versions: 1 2 3 4 5 6 7 8 9 10 11 12 13 14 15 16 17 18 19 20
000
FTUS41 KILN 191000 AAA
TAFLCK
TAF AMD
KLCK 191014Z 1910/2006 07012KT P6SM OVC200
     FM191200 10012G18KT P6SM FEW050 OVC150
     FM191600 10014G26KT 5SM -SHRA OVC050
     FM192200 15016G26KT 5SM -SHRA OVC018
     FM200300 19012G24KT P6SM VCSH OVC020=

USA.gov is the U.S. government's official web portal to all federal, state and local government web resources and services.